createdAt,value
2023-03-06T02:31:27.485Z,79180.94
2023-03-06T02:34:04.986Z,79180.03
2023-03-06T02:36:39.632Z,79177.94
2023-03-06T02:39:09.442Z,79169.25
2023-03-06T02:41:39.078Z,79166.91
2023-03-06T02:44:09.076Z,79160.38
2023-03-06T02:46:37.820Z,79160.56
2023-03-06T02:49:07.182Z,79180.00
2023-03-06T02:51:36.377Z,79183.28
2023-03-06T02:54:05.619Z,79182.00
2023-03-06T02:56:34.689Z,79174.53
2023-03-06T02:59:04.351Z,79188.03
2023-03-06T03:01:33.388Z,79191.41
2023-03-06T03:04:02.453Z,79181.19
2023-03-06T03:06:31.952Z,79202.09
2023-03-06T03:09:01.130Z,79194.63
2023-03-06T03:11:30.560Z,79187.91
2023-03-06T03:13:59.535Z,79192.28
2023-03-06T03:16:29.785Z,79206.50
2023-03-06T03:19:00.193Z,79210.31
2023-03-06T03:21:29.069Z,79188.22
2023-03-06T03:23:57.796Z,79210.22
2023-03-06T03:26:30.114Z,79208.44
2023-03-06T03:29:05.928Z,79214.84
2023-03-06T03:31:34.836Z,79206.06
2023-03-06T03:34:05.027Z,79217.03
2023-03-06T03:36:38.430Z,79206.09
2023-03-06T03:39:09.303Z,79212.56
2023-03-06T03:41:39.553Z,79213.81
2023-03-06T03:44:10.815Z,79209.03
2023-03-06T03:46:40.899Z,79215.78
2023-03-06T03:49:14.277Z,79234.63
2023-03-06T03:51:47.059Z,79241.91
2023-03-06T03:54:16.767Z,79228.56
2023-03-06T03:56:48.460Z,79244.75
2023-03-06T03:59:24.670Z,79244.66
2023-03-06T04:02:08.153Z,79243.84
2023-03-06T04:04:44.719Z,79246.97
2023-03-06T04:07:13.887Z,79231.88
2023-03-06T04:09:44.078Z,79259.53
2023-03-06T04:12:14.956Z,79247.66
2023-03-06T04:14:44.457Z,79250.53
2023-03-06T04:17:13.283Z,79264.00
2023-03-06T04:19:43.072Z,79254.72
2023-03-06T04:22:12.613Z,79261.72
2023-03-06T04:24:42.372Z,79269.06
2023-03-06T04:27:11.313Z,79228.94
2023-03-06T04:29:40.459Z,79243.19
2023-03-06T04:32:10.469Z,79278.06
2023-03-06T04:34:39.971Z,79253.06
2023-03-06T04:37:19.403Z,79267.09
2023-03-06T04:39:49.739Z,79271.03
2023-03-06T04:42:19.403Z,79275.09
2023-03-06T04:44:48.313Z,79287.16
2023-03-06T04:47:19.049Z,79277.03
2023-03-06T04:49:48.055Z,79283.28
2023-03-06T04:52:17.020Z,79282.34
2023-03-06T04:54:47.031Z,79262.00
2023-03-06T04:57:16.920Z,79292.56
2023-03-06T04:59:46.117Z,79279.09
2023-03-06T05:02:14.995Z,79263.38
2023-03-06T05:04:44.618Z,79265.72
2023-03-06T05:07:13.855Z,79270.91
2023-03-06T05:09:42.844Z,79268.25
2023-03-06T05:12:11.513Z,79266.72
2023-03-06T05:14:40.287Z,79283.28
2023-03-06T05:17:08.870Z,79279.72
2023-03-06T05:19:38.505Z,79292.28
2023-03-06T05:22:07.571Z,79256.47
2023-03-06T05:24:38.184Z,79274.66
2023-03-06T05:27:07.420Z,79245.72
2023-03-06T05:29:36.216Z,79276.91
2023-03-06T05:32:05.910Z,79287.31
2023-03-06T05:34:34.668Z,79283.31
2023-03-06T05:37:03.324Z,79288.06
2023-03-06T05:39:32.073Z,79287.47
2023-03-06T05:42:01.245Z,79269.94
2023-03-06T05:44:34.678Z,79275.50
2023-03-06T05:47:03.710Z,79285.91
2023-03-06T05:49:37.653Z,79293.59
2023-03-06T05:52:08.270Z,79296.75
2023-03-06T05:54:38.521Z,79271.16
2023-03-06T05:57:07.764Z,79285.13
2023-03-06T05:59:37.353Z,79271.56
2023-03-06T06:02:06.482Z,79282.22
2023-03-06T06:04:35.918Z,79268.91
2023-03-06T06:07:04.761Z,79282.16
2023-03-06T06:09:34.313Z,79274.78
2023-03-06T06:12:05.034Z,79283.31
2023-03-06T06:14:36.226Z,79266.19
2023-03-06T06:17:05.452Z,79276.25
2023-03-06T06:19:34.406Z,79270.66
2023-03-06T06:22:04.782Z,79241.38
2023-03-06T06:24:34.080Z,79275.97
2023-03-06T06:27:04.111Z,79259.81
2023-03-06T06:29:34.049Z,79274.59
2023-03-06T06:32:03.450Z,79270.19
2023-03-06T06:34:33.156Z,79252.44
2023-03-06T06:37:02.465Z,79279.44
2023-03-06T06:39:31.283Z,79267.50
2023-03-06T06:42:25.904Z,79272.34
2023-03-06T06:44:49.241Z,79242.94
2023-03-06T06:47:23.104Z,79261.41
2023-03-06T06:50:00.025Z,79260.88
2023-03-06T06:52:29.338Z,79245.22
2023-03-06T06:54:58.106Z,79258.53
2023-03-06T06:57:27.144Z,79258.41
2023-03-06T06:59:55.737Z,79229.28
2023-03-06T07:02:25.048Z,79234.03
2023-03-06T07:05:03.820Z,79226.28
2023-03-06T07:07:38.800Z,79233.53
2023-03-06T07:10:14.097Z,79242.03
2023-03-06T07:12:43.522Z,79228.59
2023-03-06T07:15:15.522Z,79229.72
2023-03-06T07:17:44.860Z,79240.06
2023-03-06T07:20:13.786Z,79225.00
2023-03-06T07:22:50.769Z,79220.25
2023-03-06T07:25:21.019Z,79229.59
2023-03-06T07:27:53.854Z,79234.75
2023-03-06T07:30:24.614Z,79215.94
2023-03-06T07:32:55.583Z,79198.59
2023-03-06T07:35:26.372Z,79226.03
2023-03-06T07:37:55.637Z,79227.84
2023-03-06T07:40:25.113Z,79223.63
2023-03-06T07:43:12.983Z,79201.34
2023-03-06T07:45:57.584Z,79204.66
2023-03-06T07:48:26.926Z,79194.00
2023-03-06T07:51:01.239Z,79214.06
2023-03-06T07:53:31.099Z,79200.91
2023-03-06T07:56:00.124Z,79197.66
2023-03-06T07:58:29.233Z,79188.75
2023-03-06T08:00:58.207Z,79176.22
2023-03-06T08:03:27.270Z,79179.16
2023-03-06T08:06:05.648Z,79178.63
2023-03-06T08:08:36.627Z,79188.19
2023-03-06T08:11:05.803Z,79177.09
2023-03-06T08:13:35.183Z,79163.16
2023-03-06T08:16:04.839Z,79176.28
2023-03-06T08:18:34.169Z,79172.28
2023-03-06T08:21:13.586Z,79181.09
2023-03-06T08:23:43.276Z,79152.41
2023-03-06T08:26:19.268Z,79169.03
2023-03-06T08:28:49.594Z,79165.97
2023-03-06T08:31:27.765Z,79153.81
2023-03-06T08:33:58.377Z,79158.44
2023-03-06T08:36:27.551Z,79157.16
2023-03-06T08:38:56.621Z,79151.44
2023-03-06T08:41:26.712Z,79115.38
2023-03-06T08:43:55.436Z,79141.63
2023-03-06T08:46:27.075Z,79132.72
2023-03-06T08:48:55.952Z,79134.66
2023-03-06T08:51:25.491Z,79133.66
2023-03-06T08:53:55.272Z,79140.88
2023-03-06T08:56:30.634Z,79142.47
2023-03-06T08:59:02.077Z,79122.38
2023-03-06T09:01:37.448Z,79137.16
2023-03-06T09:04:12.632Z,79118.13
2023-03-06T09:06:43.845Z,79127.31
2023-03-06T09:09:13.881Z,79125.28
2023-03-06T09:11:42.763Z,79110.22
2023-03-06T09:14:11.546Z,79091.47
2023-03-06T09:16:41.353Z,79129.47
2023-03-06T09:19:10.571Z,79103.59
2023-03-06T09:21:39.655Z,79111.31
2023-03-06T09:24:09.543Z,79108.44
2023-03-06T09:26:46.010Z,79114.84
2023-03-06T09:29:17.281Z,79115.06
2023-03-06T09:31:47.639Z,79079.84
2023-03-06T09:34:16.733Z,79088.13
2023-03-06T09:36:56.487Z,79112.28
2023-03-06T09:39:28.003Z,79094.13
2023-03-06T09:42:01.229Z,79108.69
2023-03-06T09:44:36.091Z,79073.75
2023-03-06T09:47:19.779Z,79101.31
2023-03-06T09:49:51.246Z,79105.75
2023-03-06T09:52:53.319Z,79104.00
2023-03-06T09:55:28.117Z,79083.19
2023-03-06T09:58:37.895Z,79107.56
2023-03-06T10:01:22.321Z,79096.09
2023-03-06T10:04:21.697Z,79096.09
2023-03-06T10:06:54.318Z,79097.09
2023-03-06T10:09:37.851Z,79083.91
2023-03-06T10:12:25.473Z,79073.28
2023-03-06T10:15:21.133Z,79082.69
2023-03-06T10:17:50.833Z,79071.28
2023-03-06T10:20:35.224Z,79067.53
2023-03-06T10:23:05.338Z,79069.09
2023-03-06T10:25:48.008Z,79057.63
2023-03-06T10:28:18.272Z,79063.38
2023-03-06T10:31:07.489Z,79055.75
2023-03-06T10:33:52.070Z,79020.38
2023-03-06T10:36:22.581Z,79050.72
2023-03-06T10:38:51.467Z,79049.16
2023-03-06T10:41:23.001Z,79052.88
2023-03-06T10:44:07.561Z,79048.94
2023-03-06T10:46:43.892Z,79025.09
2023-03-06T10:49:31.669Z,79042.16
2023-03-06T10:52:07.759Z,79025.97
2023-03-06T10:54:42.544Z,79045.75
2023-03-06T10:57:32.182Z,79046.44
2023-03-06T11:00:03.516Z,79054.50
2023-03-06T11:02:42.084Z,79021.06
2023-03-06T11:05:22.280Z,79042.47
2023-03-06T11:08:22.112Z,79043.78
2023-03-06T11:11:03.241Z,79031.03
2023-03-06T11:13:36.618Z,79044.63
2023-03-06T11:16:26.067Z,79010.53
2023-03-06T11:19:04.950Z,79043.97
2023-03-06T11:21:38.537Z,79029.00
2023-03-06T11:24:19.304Z,79036.06
2023-03-06T11:27:02.946Z,79035.13
2023-03-06T11:30:00.605Z,79039.59
2023-03-06T11:32:33.968Z,79043.88
2023-03-06T11:35:10.489Z,79043.41
2023-03-06T11:37:55.580Z,79047.53
2023-03-06T11:40:43.027Z,79024.31
2023-03-06T11:43:24.550Z,79039.53
2023-03-06T11:46:14.793Z,79046.41
2023-03-06T11:48:53.151Z,79053.75
2023-03-06T11:51:30.397Z,79039.06
2023-03-06T11:54:01.708Z,79031.44
2023-03-06T11:56:54.405Z,79056.59
2023-03-06T12:00:04.445Z,79053.09
2023-03-06T12:02:57.529Z,79033.81
2023-03-06T12:05:49.449Z,79047.78
2023-03-06T12:08:43.303Z,79051.22
2023-03-06T12:11:33.168Z,79047.19
2023-03-06T12:14:24.828Z,79045.59
2023-03-06T12:17:08.232Z,79050.53
2023-03-06T12:19:59.105Z,79046.28
2023-03-06T12:22:57.423Z,79044.28
2023-03-06T12:25:50.021Z,79024.22
2023-03-06T12:28:56.043Z,79048.66
2023-03-06T12:31:52.724Z,79038.16
2023-03-06T12:34:43.654Z,79043.09
2023-03-06T12:37:21.603Z,79037.41
2023-03-06T12:40:29.033Z,79053.88
2023-03-06T12:43:24.193Z,79053.09
2023-03-06T12:46:00.535Z,79037.53
2023-03-06T12:48:33.908Z,79054.97
2023-03-06T12:51:04.480Z,79041.63
2023-03-06T12:53:34.948Z,79050.34
2023-03-06T12:56:06.629Z,79045.44
2023-03-06T12:58:37.122Z,79065.06
2023-03-06T13:01:38.236Z,79062.75
2023-03-06T13:04:28.442Z,79070.31
2023-03-06T13:07:18.254Z,79077.75
2023-03-06T13:10:12.462Z,79057.94
2023-03-06T13:13:01.995Z,79075.91
2023-03-06T13:15:44.951Z,79058.03
2023-03-06T13:18:23.372Z,79079.91
2023-03-06T13:20:59.696Z,79073.28
2023-03-06T13:23:52.435Z,79073.41
2023-03-06T13:26:27.821Z,79076.84
2023-03-06T13:28:58.924Z,79080.84
2023-03-06T13:31:49.302Z,79089.38
2023-03-06T13:34:33.311Z,79086.53
2023-03-06T13:37:25.846Z,79087.22
2023-03-06T13:40:00.553Z,79093.22
2023-03-06T13:42:37.657Z,79095.22
2023-03-06T13:45:10.148Z,79096.78
2023-03-06T13:48:09.598Z,79097.06
2023-03-06T13:50:47.954Z,79053.19
2023-03-06T13:53:25.701Z,79109.88
2023-03-06T13:56:17.831Z,79101.81
2023-03-06T13:59:17.000Z,79111.94
2023-03-06T14:02:11.181Z,79106.75
2023-03-06T14:05:01.163Z,79115.41
2023-03-06T14:07:34.607Z,79115.34
2023-03-06T14:10:15.396Z,79116.28
2023-03-06T14:12:56.908Z,79108.19
2023-03-06T14:15:54.462Z,79114.25
2023-03-06T14:18:45.576Z,79104.63
2023-03-06T14:21:18.784Z,79119.84
2023-03-06T14:23:48.229Z,79101.47
2023-03-06T14:26:25.947Z,79115.22
2023-03-06T14:28:56.674Z,79119.88
2023-03-06T14:31:38.039Z,79104.91
2023-03-06T14:34:09.993Z,79122.78
2023-03-06T14:36:46.737Z,79126.69
2023-03-06T14:39:29.618Z,79130.75
2023-03-06T14:42:19.155Z,79130.09
2023-03-06T14:45:21.488Z,79102.41
2023-03-06T14:47:52.787Z,79136.78
2023-03-06T14:50:31.232Z,79140.81
2023-03-06T14:53:24.195Z,79129.59
2023-03-06T14:56:04.989Z,79131.66
2023-03-06T14:58:40.026Z,79121.84
2023-03-06T15:01:11.730Z,79138.47
2023-03-06T15:03:54.385Z,79130.03
2023-03-06T15:06:48.813Z,79138.44
2023-03-06T15:09:33.119Z,79104.22
2023-03-06T15:12:24.314Z,79142.59
2023-03-06T15:15:05.756Z,79135.34
2023-03-06T15:17:46.775Z,79135.38
2023-03-06T15:20:38.181Z,79138.13
2023-03-06T15:23:27.392Z,79124.22
2023-03-06T15:26:01.873Z,79138.22
2023-03-06T15:28:37.929Z,79111.75
2023-03-06T15:31:23.139Z,79139.56
2023-03-06T15:34:24.824Z,79138.94
2023-03-06T15:36:57.073Z,79133.56
2023-03-06T15:39:42.721Z,79120.97
2023-03-06T15:42:22.153Z,79135.41
2023-03-06T15:45:01.069Z,79129.50
2023-03-06T15:47:30.119Z,79115.59
2023-03-06T15:49:59.248Z,79139.25
2023-03-06T15:52:29.778Z,79141.84
2023-03-06T15:54:59.449Z,79137.88
2023-03-06T15:57:33.359Z,79121.38
2023-03-06T16:00:03.307Z,79116.06
2023-03-06T16:02:40.176Z,79138.47
2023-03-06T16:05:28.397Z,79133.34
2023-03-06T16:07:58.108Z,79142.09
2023-03-06T16:10:29.946Z,79111.16
2023-03-06T16:13:04.630Z,79126.94
2023-03-06T16:15:40.103Z,79115.53
2023-03-06T16:18:12.851Z,79133.38
2023-03-06T16:20:45.934Z,79140.63
2023-03-06T16:23:16.244Z,79119.63
2023-03-06T16:25:48.726Z,79118.91
2023-03-06T16:28:19.109Z,79119.59
2023-03-06T16:30:47.865Z,79118.84
2023-03-06T16:33:17.473Z,79125.88
2023-03-06T16:35:48.465Z,79101.97
2023-03-06T16:38:22.368Z,79129.94
2023-03-06T16:40:51.434Z,79132.13
2023-03-06T16:43:19.931Z,79136.41
2023-03-06T16:45:49.389Z,79128.00
2023-03-06T16:48:18.957Z,79107.06
2023-03-06T16:50:47.850Z,79122.28
2023-03-06T16:53:16.706Z,79121.56
2023-03-06T16:55:46.685Z,79107.63
2023-03-06T16:58:15.414Z,79125.38
2023-03-06T17:00:44.618Z,79089.03
2023-03-06T17:03:14.333Z,79118.72
2023-03-06T17:05:44.231Z,79109.03
2023-03-06T17:08:14.095Z,79111.13
2023-03-06T17:10:43.319Z,79119.84
2023-03-06T17:13:13.328Z,79125.75
2023-03-06T17:15:42.549Z,79090.06
2023-03-06T17:18:13.115Z,79117.25
2023-03-06T17:20:49.584Z,79100.72
2023-03-06T17:23:19.825Z,79102.00
2023-03-06T17:25:48.669Z,79098.75
2023-03-06T17:28:18.221Z,79116.78
2023-03-06T17:30:47.578Z,79101.25
2023-03-06T17:33:16.425Z,79120.84
2023-03-06T17:35:46.239Z,79123.22
2023-03-06T17:38:20.137Z,79111.31
2023-03-06T17:40:49.993Z,79096.41
2023-03-06T17:43:19.427Z,79097.00
2023-03-06T17:45:48.677Z,79092.53
2023-03-06T17:48:18.538Z,79088.59
2023-03-06T17:50:55.408Z,79098.00
2023-03-06T17:53:25.150Z,79093.31
2023-03-06T17:55:54.513Z,79109.09
2023-03-06T17:58:23.431Z,79087.31
2023-03-06T18:00:53.391Z,79110.19
2023-03-06T18:03:22.253Z,79093.97
2023-03-06T18:06:11.104Z,79120.97
2023-03-06T18:08:40.605Z,79096.34
2023-03-06T18:11:11.989Z,79119.53
2023-03-06T18:13:43.406Z,79084.63
2023-03-06T18:16:15.201Z,79110.47
2023-03-06T18:18:44.524Z,79106.47
2023-03-06T18:21:16.106Z,79109.81
2023-03-06T18:23:45.367Z,79116.00
2023-03-06T18:26:33.221Z,79117.31
2023-03-06T18:29:06.534Z,79105.47
2023-03-06T18:31:43.097Z,79118.84
2023-03-06T18:34:15.150Z,79114.88
2023-03-06T18:36:44.901Z,79108.28
2023-03-06T18:39:16.087Z,79095.09
2023-03-06T18:41:46.456Z,79086.00
2023-03-06T18:44:17.158Z,79093.34
2023-03-06T18:46:48.045Z,79118.59
2023-03-06T18:49:18.349Z,79097.56
2023-03-06T18:51:49.692Z,79080.41
2023-03-06T18:54:18.683Z,79109.56
2023-03-06T18:56:47.613Z,79105.59
2023-03-06T18:59:22.114Z,79092.44
2023-03-06T19:01:52.762Z,79112.97
2023-03-06T19:04:22.349Z,79081.25
2023-03-06T19:06:53.408Z,79105.03
2023-03-06T19:09:59.271Z,79099.06
2023-03-06T19:12:31.318Z,79093.84
2023-03-06T19:15:01.380Z,79085.91
2023-03-06T19:17:32.845Z,79081.94
2023-03-06T19:20:01.948Z,79027.75
2023-03-06T19:22:33.280Z,79085.94
2023-03-06T19:25:04.617Z,79091.22
2023-03-06T19:27:36.479Z,79070.03
2023-03-06T19:30:07.998Z,79082.56
2023-03-06T19:32:39.341Z,79091.81
2023-03-06T19:35:11.501Z,79075.28
2023-03-06T19:37:43.742Z,79065.34
2023-03-06T19:40:15.421Z,79077.88
2023-03-06T19:42:44.748Z,79083.84
2023-03-06T19:45:17.322Z,79069.28
2023-03-06T19:47:48.000Z,79085.19
2023-03-06T19:50:17.632Z,79066.69
2023-03-06T19:52:46.517Z,79075.28
2023-03-06T19:55:15.557Z,79071.31
2023-03-06T19:57:46.294Z,79066.69
2023-03-06T20:00:52.958Z,79068.69
2023-03-06T20:03:24.932Z,79057.47
2023-03-06T20:05:55.147Z,79050.84
2023-03-06T20:08:24.172Z,79041.59
2023-03-06T20:11:34.746Z,79064.72
2023-03-06T20:14:06.300Z,79064.59
2023-03-06T20:16:36.777Z,79071.09
2023-03-06T20:19:07.888Z,79055.19
2023-03-06T20:21:38.641Z,79046.63
2023-03-06T20:24:09.306Z,79040.66
2023-03-06T20:26:39.685Z,79048.59
2023-03-06T20:29:08.549Z,79043.28
2023-03-06T20:31:38.945Z,79040.66
2023-03-06T20:34:08.952Z,79047.94
2023-03-06T20:36:41.551Z,79012.94
2023-03-06T20:39:16.512Z,79051.28
2023-03-06T20:41:47.792Z,79045.97
2023-03-06T20:44:31.203Z,79014.91
2023-03-06T20:47:00.473Z,79039.41
2023-03-06T20:49:29.904Z,79024.28
2023-03-06T20:51:59.472Z,79036.81
2023-03-06T20:54:28.484Z,79005.09
2023-03-06T20:56:57.674Z,79023.59
2023-03-06T20:59:26.587Z,79030.22
2023-03-06T21:01:55.556Z,78996.44
2023-03-06T21:04:24.722Z,79014.94
2023-03-06T21:06:54.837Z,79020.91
2023-03-06T21:09:23.979Z,79009.72
2023-03-06T21:11:53.594Z,78991.19
2023-03-06T21:14:23.016Z,79017.66
2023-03-06T21:16:52.433Z,79005.81
2023-03-06T21:19:21.403Z,78976.75
2023-03-06T21:21:51.535Z,78986.03
2023-03-06T21:24:23.306Z,78986.69
2023-03-06T21:26:52.981Z,78991.97
2023-03-06T21:29:22.235Z,78992.66
2023-03-06T21:31:51.677Z,78966.22
2023-03-06T21:34:21.562Z,78953.66
2023-03-06T21:36:52.017Z,78990.63
2023-03-06T21:39:21.132Z,78983.38
2023-03-06T21:41:50.124Z,78987.97
2023-03-06T21:44:19.202Z,78967.44
2023-03-06T21:46:48.188Z,78981.94
2023-03-06T21:49:17.363Z,78987.22
2023-03-06T21:51:46.180Z,78997.13
2023-03-06T21:54:15.927Z,78973.38
2023-03-06T21:56:44.740Z,78976.09
2023-03-06T21:59:14.492Z,78972.81
2023-03-06T22:01:43.594Z,78982.06
2023-03-06T22:04:12.853Z,78972.78
2023-03-06T22:06:42.105Z,78970.13
2023-03-06T22:09:14.669Z,78966.16
2023-03-06T22:11:44.045Z,78940.44
2023-03-06T22:14:13.021Z,78962.25
2023-03-06T22:16:42.981Z,78987.38
2023-03-06T22:19:11.951Z,78981.44
2023-03-06T22:21:41.368Z,78977.47
2023-03-06T22:24:10.475Z,78986.06
2023-03-06T22:26:40.173Z,78956.97
2023-03-06T22:29:08.853Z,78969.53
2023-03-06T22:31:40.219Z,78945.06
2023-03-06T22:34:09.258Z,78965.50
2023-03-06T22:36:38.330Z,78978.69
2023-03-06T22:39:07.390Z,78954.19
2023-03-06T22:41:36.746Z,78968.69
2023-03-06T22:44:06.247Z,78972.59
2023-03-06T22:46:35.472Z,78952.78
2023-03-06T22:49:04.691Z,78964.66
2023-03-06T22:51:33.747Z,78941.44
2023-03-06T22:54:02.389Z,78961.03
2023-03-06T22:56:32.713Z,78924.13
2023-03-06T22:59:02.481Z,78971.03
2023-03-06T23:01:34.883Z,78976.28
2023-03-06T23:04:09.337Z,78958.50
2023-03-06T23:06:40.936Z,78969.03
2023-03-06T23:09:21.612Z,78973.72
2023-03-06T23:12:10.333Z,78973.97
2023-03-06T23:14:57.837Z,78931.06
2023-03-06T23:17:45.291Z,78975.34
2023-03-06T23:20:33.001Z,78937.97
2023-03-06T23:23:20.466Z,78957.88
2023-03-06T23:25:49.940Z,78963.88
2023-03-06T23:28:19.237Z,78969.25
2023-03-06T23:30:48.576Z,78968.00
